createdAt,value
2022-10-23T00:01:42.532Z,13.71
2022-10-23T00:04:19.250Z,13.72
2022-10-23T00:06:47.894Z,13.71
2022-10-23T00:09:19.673Z,13.67
2022-10-23T00:11:49.989Z,13.62
2022-10-23T00:14:23.669Z,13.56
2022-10-23T00:16:51.678Z,13.53
2022-10-23T00:19:18.566Z,13.50
2022-10-23T00:21:45.601Z,13.48
2022-10-23T00:24:12.761Z,13.43
2022-10-23T00:26:40.717Z,13.43
2022-10-23T00:29:08.650Z,13.46
2022-10-23T00:31:36.325Z,13.46
2022-10-23T00:34:04.223Z,13.45
2022-10-23T00:36:31.352Z,13.46
2022-10-23T00:38:58.168Z,13.45
2022-10-23T00:41:32.181Z,13.44
2022-10-23T00:44:19.168Z,13.42
2022-10-23T00:46:46.423Z,13.40
2022-10-23T00:49:14.774Z,13.38
2022-10-23T00:51:48.968Z,13.39
2022-10-23T00:54:24.482Z,13.37
2022-10-23T00:56:58.908Z,13.34
2022-10-23T00:59:26.964Z,13.33
2022-10-23T01:01:54.874Z,13.32
2022-10-23T01:04:23.029Z,13.30
2022-10-23T01:07:02.065Z,13.31
2022-10-23T01:09:55.815Z,13.31
2022-10-23T01:12:53.452Z,13.29
2022-10-23T01:15:41.804Z,13.28
2022-10-23T01:18:39.687Z,13.28
2022-10-23T01:21:32.430Z,13.28
2022-10-23T01:24:23.721Z,13.27
2022-10-23T01:27:12.065Z,13.28
2022-10-23T01:30:10.652Z,13.27
2022-10-23T01:33:15.042Z,13.25
2022-10-23T01:35:52.224Z,13.22
2022-10-23T01:38:39.804Z,13.20
2022-10-23T01:41:24.454Z,13.18
2022-10-23T01:44:08.988Z,13.16
2022-10-23T01:46:37.468Z,13.14
2022-10-23T01:49:10.080Z,13.12
2022-10-23T01:51:39.886Z,13.11
2022-10-23T01:54:12.434Z,13.12
2022-10-23T01:56:44.095Z,13.10
2022-10-23T01:59:19.657Z,13.10
2022-10-23T02:01:51.328Z,13.10
2022-10-23T02:04:33.718Z,13.09
2022-10-23T02:07:01.045Z,13.10
2022-10-23T02:09:28.138Z,13.12
2022-10-23T02:12:09.166Z,13.14
2022-10-23T02:15:03.649Z,13.13
2022-10-23T02:18:09.758Z,13.11
2022-10-23T02:20:53.459Z,13.09
2022-10-23T02:23:35.738Z,13.07
2022-10-23T02:26:32.811Z,13.08
2022-10-23T02:29:31.023Z,13.07
2022-10-23T02:31:57.901Z,13.05
2022-10-23T02:34:24.986Z,13.03
2022-10-23T02:36:52.199Z,13.04
2022-10-23T02:39:23.503Z,13.04
2022-10-23T02:42:04.750Z,13.03
2022-10-23T02:44:58.041Z,13.00
2022-10-23T02:48:23.744Z,12.99
2022-10-23T02:51:04.928Z,12.98
2022-10-23T02:54:06.739Z,12.93
2022-10-23T02:56:53.426Z,12.89
2022-10-23T02:59:45.057Z,12.88
2022-10-23T03:02:26.050Z,12.88
2022-10-23T03:04:56.568Z,12.86
2022-10-23T03:07:26.718Z,12.85
2022-10-23T03:09:53.467Z,12.84
2022-10-23T03:12:20.515Z,12.84
2022-10-23T03:14:47.267Z,12.81
2022-10-23T03:17:14.233Z,12.79
2022-10-23T03:19:41.107Z,12.77
2022-10-23T03:22:08.115Z,12.77
2022-10-23T03:24:34.895Z,12.78
2022-10-23T03:27:01.843Z,12.78
2022-10-23T03:29:28.586Z,12.73
2022-10-23T03:31:55.836Z,12.69
2022-10-23T03:34:22.647Z,12.67
2022-10-23T03:36:49.826Z,12.64
2022-10-23T03:39:17.440Z,12.64
2022-10-23T03:41:44.457Z,12.63
2022-10-23T03:44:11.304Z,12.65
2022-10-23T03:46:38.317Z,12.63
2022-10-23T03:49:05.818Z,12.62
2022-10-23T03:51:32.793Z,12.59
2022-10-23T03:53:59.659Z,12.56
2022-10-23T03:56:26.881Z,12.55
2022-10-23T03:58:53.648Z,12.55
2022-10-23T04:01:20.694Z,12.52
2022-10-23T04:03:47.591Z,12.50
2022-10-23T04:06:14.552Z,12.47
2022-10-23T04:08:44.305Z,12.47
2022-10-23T04:11:11.675Z,12.45
2022-10-23T04:13:38.525Z,12.41
2022-10-23T04:16:05.827Z,12.40
2022-10-23T04:18:32.669Z,12.37
2022-10-23T04:20:59.701Z,12.37
2022-10-23T04:23:26.554Z,12.39
2022-10-23T04:25:57.998Z,12.40
2022-10-23T04:28:25.463Z,12.40
2022-10-23T04:30:52.974Z,12.39
2022-10-23T04:33:21.465Z,12.36
2022-10-23T04:35:48.581Z,12.32
2022-10-23T04:38:15.357Z,12.29
2022-10-23T04:40:42.483Z,12.27
2022-10-23T04:43:09.338Z,12.25
2022-10-23T04:45:36.486Z,12.22
2022-10-23T04:48:03.719Z,12.19
2022-10-23T04:50:30.869Z,12.17
2022-10-23T04:52:58.414Z,12.15
2022-10-23T04:55:25.492Z,12.10
2022-10-23T04:58:11.518Z,12.12
2022-10-23T05:00:40.370Z,12.14
2022-10-23T05:03:07.391Z,12.13
2022-10-23T05:05:34.466Z,12.13
2022-10-23T05:08:01.579Z,12.09
2022-10-23T05:10:29.239Z,12.07
2022-10-23T05:12:56.360Z,12.00
2022-10-23T05:15:23.350Z,11.99
2022-10-23T05:17:58.226Z,11.98
2022-10-23T05:20:29.208Z,11.99
2022-10-23T05:23:02.406Z,11.98
2022-10-23T05:25:31.011Z,11.94
2022-10-23T05:27:58.003Z,11.95
2022-10-23T05:30:25.092Z,11.95
2022-10-23T05:32:52.038Z,11.92
2022-10-23T05:35:23.684Z,11.92
2022-10-23T05:37:54.587Z,11.93
2022-10-23T05:40:21.673Z,11.90
2022-10-23T05:42:48.892Z,11.88
2022-10-23T05:45:16.691Z,11.86
2022-10-23T05:47:46.544Z,11.85
2022-10-23T05:50:13.657Z,11.84
2022-10-23T05:52:40.816Z,11.83
2022-10-23T05:55:08.556Z,11.81
2022-10-23T05:57:35.631Z,11.82
2022-10-23T06:00:02.779Z,11.83
2022-10-23T06:02:29.897Z,11.85
2022-10-23T06:04:56.893Z,11.86
2022-10-23T06:07:31.312Z,11.88
2022-10-23T06:10:00.763Z,11.91
2022-10-23T06:12:27.595Z,11.92
2022-10-23T06:14:54.584Z,11.92
2022-10-23T06:17:21.475Z,11.97
2022-10-23T06:19:48.468Z,12.02
2022-10-23T06:22:15.418Z,12.05
2022-10-23T06:24:42.450Z,12.05
2022-10-23T06:27:09.280Z,12.05
2022-10-23T06:29:36.440Z,12.05
2022-10-23T06:32:03.306Z,12.04
2022-10-23T06:34:30.296Z,12.03
2022-10-23T06:36:57.087Z,12.06
2022-10-23T06:39:26.109Z,12.07
2022-10-23T06:41:55.383Z,12.11
2022-10-23T06:44:22.532Z,12.18
2022-10-23T06:46:49.550Z,12.18
2022-10-23T06:49:18.731Z,12.21
2022-10-23T06:51:45.524Z,12.22
2022-10-23T06:54:12.408Z,12.25
2022-10-23T06:56:39.704Z,12.26
2022-10-23T06:59:07.785Z,12.25
2022-10-23T07:01:36.033Z,12.27
2022-10-23T07:04:03.122Z,12.28
2022-10-23T07:06:30.153Z,12.30
2022-10-23T07:08:57.046Z,12.32
2022-10-23T07:11:24.164Z,12.33
2022-10-23T07:13:51.534Z,12.34
2022-10-23T07:16:22.466Z,12.38
2022-10-23T07:18:59.695Z,12.42
2022-10-23T07:21:35.719Z,12.44
2022-10-23T07:24:03.672Z,12.46
2022-10-23T07:26:32.915Z,12.51
2022-10-23T07:28:59.788Z,12.55
2022-10-23T07:31:28.378Z,12.57
2022-10-23T07:33:55.500Z,12.60
2022-10-23T07:36:23.365Z,12.64
2022-10-23T07:38:52.162Z,12.67
2022-10-23T07:41:19.363Z,12.72
2022-10-23T07:43:46.810Z,12.77
2022-10-23T07:46:13.879Z,12.81
2022-10-23T07:48:41.354Z,12.83
2022-10-23T07:51:14.949Z,12.85
2022-10-23T07:53:44.940Z,12.86
2022-10-23T07:56:23.190Z,12.90
2022-10-23T07:58:54.234Z,12.95
2022-10-23T08:01:32.576Z,13.01
2022-10-23T08:04:00.941Z,13.06
2022-10-23T08:06:28.949Z,13.10
2022-10-23T08:08:56.052Z,13.14
2022-10-23T08:11:27.966Z,13.18
2022-10-23T08:13:58.790Z,13.23
2022-10-23T08:16:25.990Z,13.27
2022-10-23T08:18:52.995Z,13.33
2022-10-23T08:21:20.409Z,13.37
2022-10-23T08:23:47.304Z,13.39
2022-10-23T08:26:15.297Z,13.45
2022-10-23T08:28:42.136Z,13.51
2022-10-23T08:31:19.822Z,13.54
2022-10-23T08:33:46.939Z,13.58
2022-10-23T08:36:25.780Z,13.61
2022-10-23T08:38:55.108Z,13.67
2022-10-23T08:41:25.146Z,13.70
2022-10-23T08:44:01.368Z,13.76
2022-10-23T08:46:40.815Z,13.82
2022-10-23T08:49:49.166Z,13.87
2022-10-23T08:52:35.323Z,13.93
2022-10-23T08:55:33.688Z,14.00
2022-10-23T08:58:31.875Z,14.06
2022-10-23T09:00:59.061Z,14.12
2022-10-23T09:03:27.606Z,14.17
2022-10-23T09:06:12.153Z,14.23
2022-10-23T09:09:04.407Z,14.28
2022-10-23T09:11:49.068Z,14.37
2022-10-23T09:14:53.615Z,14.43
2022-10-23T09:17:28.567Z,14.52
2022-10-23T09:20:35.233Z,14.58
2022-10-23T09:23:14.462Z,14.66
2022-10-23T09:25:43.339Z,14.69
2022-10-23T09:28:21.991Z,14.77
2022-10-23T09:30:50.171Z,14.81
2022-10-23T09:33:28.268Z,14.90
2022-10-23T09:36:12.478Z,15.06
2022-10-23T09:38:45.366Z,15.12
2022-10-23T09:41:36.428Z,15.16
2022-10-23T09:44:24.818Z,15.20
2022-10-23T09:47:01.336Z,15.24
2022-10-23T09:49:34.197Z,15.27
2022-10-23T09:52:04.799Z,15.34
2022-10-23T09:54:44.470Z,15.38
2022-10-23T09:57:37.112Z,15.42
2022-10-23T10:00:27.719Z,15.43
2022-10-23T10:03:05.345Z,15.46
2022-10-23T10:05:39.613Z,15.51
2022-10-23T10:08:31.952Z,15.56
2022-10-23T10:11:13.193Z,15.58
2022-10-23T10:14:03.599Z,15.61
2022-10-23T10:16:54.571Z,15.63
2022-10-23T10:19:53.947Z,15.67
2022-10-23T10:22:41.925Z,15.72
2022-10-23T10:25:52.117Z,15.77
2022-10-23T10:28:37.519Z,15.84
2022-10-23T10:31:23.525Z,15.85
2022-10-23T10:34:14.181Z,15.89
2022-10-23T10:37:13.443Z,15.91
2022-10-23T10:40:06.205Z,15.93
2022-10-23T10:43:00.320Z,15.93
2022-10-23T10:45:37.948Z,15.90
2022-10-23T10:48:47.738Z,15.88
2022-10-23T10:51:45.981Z,15.87
2022-10-23T10:54:19.153Z,15.85
2022-10-23T10:56:48.468Z,15.82
2022-10-23T10:59:31.967Z,15.79
2022-10-23T11:02:17.520Z,15.77
2022-10-23T11:05:05.073Z,15.73
2022-10-23T11:07:43.453Z,15.70
2022-10-23T11:10:19.693Z,15.65
2022-10-23T11:12:48.962Z,15.60
2022-10-23T11:15:23.613Z,15.54
2022-10-23T11:18:24.204Z,15.52
2022-10-23T11:21:11.898Z,15.51
2022-10-23T11:23:57.153Z,15.51
2022-10-23T11:26:35.127Z,15.49
2022-10-23T11:29:51.720Z,15.48
2022-10-23T11:32:38.247Z,15.48
2022-10-23T11:35:42.650Z,15.48
2022-10-23T11:38:35.515Z,15.53
2022-10-23T11:41:18.188Z,15.57
2022-10-23T11:43:55.454Z,15.60
2022-10-23T11:46:22.201Z,15.63
2022-10-23T11:48:50.512Z,15.67
2022-10-23T11:51:35.754Z,15.71
2022-10-23T11:54:12.071Z,15.73
2022-10-23T11:57:10.708Z,15.75
2022-10-23T11:59:51.889Z,15.79
2022-10-23T12:02:43.385Z,15.80
2022-10-23T12:05:35.524Z,15.80
2022-10-23T12:08:07.656Z,15.76
2022-10-23T12:10:45.816Z,15.76
2022-10-23T12:13:51.263Z,15.75
2022-10-23T12:16:18.339Z,15.77
2022-10-23T12:18:53.956Z,15.77
2022-10-23T12:21:28.442Z,15.75
2022-10-23T12:24:43.469Z,15.74
2022-10-23T12:27:23.986Z,15.76
2022-10-23T12:30:24.888Z,15.77
2022-10-23T12:33:03.275Z,15.81
2022-10-23T12:36:03.134Z,15.81
2022-10-23T12:38:34.061Z,15.83
2022-10-23T12:41:15.028Z,15.83
2022-10-23T12:44:03.977Z,15.85
2022-10-23T12:46:43.484Z,15.86
2022-10-23T12:49:21.336Z,15.87
2022-10-23T12:52:14.988Z,15.89
2022-10-23T12:54:42.457Z,15.92
2022-10-23T12:57:30.324Z,15.93
2022-10-23T13:00:08.292Z,15.97
2022-10-23T13:02:35.449Z,16.06
2022-10-23T13:05:08.122Z,16.10
2022-10-23T13:07:43.441Z,16.14
2022-10-23T13:10:17.573Z,16.20
2022-10-23T13:12:56.945Z,16.26
2022-10-23T13:15:27.039Z,16.33
2022-10-23T13:17:53.982Z,16.38
2022-10-23T13:20:27.540Z,16.44
2022-10-23T13:23:10.050Z,16.45
2022-10-23T13:25:39.563Z,16.50
2022-10-23T13:28:25.539Z,16.50
2022-10-23T13:31:27.758Z,16.54
2022-10-23T13:34:00.769Z,16.58
2022-10-23T13:36:34.670Z,16.57
2022-10-23T13:39:27.291Z,16.56
2022-10-23T13:41:54.488Z,16.60
2022-10-23T13:44:24.984Z,16.61
2022-10-23T13:46:52.711Z,16.61
2022-10-23T13:49:20.245Z,16.63
2022-10-23T13:51:54.715Z,16.65
2022-10-23T13:54:25.487Z,16.66
2022-10-23T13:56:55.578Z,16.66
2022-10-23T13:59:23.384Z,16.68
2022-10-23T14:01:51.659Z,16.68
2022-10-23T14:04:19.861Z,16.69
2022-10-23T14:06:47.391Z,16.71
2022-10-23T14:09:17.597Z,16.70
2022-10-23T14:11:44.824Z,16.72
2022-10-23T14:14:11.702Z,16.72
2022-10-23T14:16:40.190Z,16.74
2022-10-23T14:19:08.306Z,16.75
2022-10-23T14:21:36.088Z,16.76
2022-10-23T14:24:03.043Z,16.79
2022-10-23T14:26:30.470Z,16.81
2022-10-23T14:29:01.109Z,16.83
2022-10-23T14:31:32.306Z,16.84
2022-10-23T14:34:01.670Z,16.84
2022-10-23T14:36:38.585Z,16.84
2022-10-23T14:39:16.969Z,16.85
2022-10-23T14:41:44.334Z,16.83
2022-10-23T14:44:11.400Z,16.86
2022-10-23T14:46:38.669Z,16.85
2022-10-23T14:49:06.045Z,16.83
2022-10-23T14:51:35.375Z,16.83
2022-10-23T14:54:07.924Z,16.82
2022-10-23T14:56:40.894Z,16.82
2022-10-23T14:59:10.939Z,16.81
2022-10-23T15:01:45.287Z,16.80
2022-10-23T15:04:14.767Z,16.79
2022-10-23T15:06:43.567Z,16.77
2022-10-23T15:09:10.437Z,16.76
2022-10-23T15:11:38.265Z,16.75
2022-10-23T15:14:05.890Z,16.73
2022-10-23T15:16:33.088Z,16.71
2022-10-23T15:18:59.922Z,16.69
2022-10-23T15:21:27.311Z,16.70
2022-10-23T15:23:54.963Z,16.68
2022-10-23T15:26:23.419Z,16.66
2022-10-23T15:28:59.224Z,16.62
2022-10-23T15:31:29.117Z,16.61
2022-10-23T15:34:00.065Z,16.57
2022-10-23T15:36:27.559Z,16.55
2022-10-23T15:38:54.919Z,16.55
2022-10-23T15:41:34.274Z,16.51
2022-10-23T15:44:04.414Z,16.51
2022-10-23T15:46:31.988Z,16.49
2022-10-23T15:48:59.802Z,16.45
2022-10-23T15:51:27.330Z,16.41
2022-10-23T15:53:57.010Z,16.39
2022-10-23T15:56:25.533Z,16.38
2022-10-23T15:58:52.501Z,16.34
2022-10-23T16:01:19.638Z,16.33
2022-10-23T16:03:47.498Z,16.28
2022-10-23T16:06:17.738Z,16.26
2022-10-23T16:08:45.214Z,16.24
2022-10-23T16:11:20.209Z,16.23
2022-10-23T16:13:47.752Z,16.20
2022-10-23T16:16:16.402Z,16.18
2022-10-23T16:18:44.864Z,16.16
2022-10-23T16:21:28.358Z,16.13
2022-10-23T16:23:58.193Z,16.11
2022-10-23T16:26:27.190Z,16.09
2022-10-23T16:28:57.966Z,16.05
2022-10-23T16:31:26.595Z,16.02
2022-10-23T16:36:25.324Z,15.99
2022-10-23T16:38:52.311Z,15.98
2022-10-23T16:41:19.538Z,15.98
2022-10-23T16:43:46.408Z,15.97
2022-10-23T16:46:21.024Z,15.97
2022-10-23T16:48:50.331Z,15.97
2022-10-23T16:51:22.764Z,15.97
2022-10-23T16:53:49.689Z,15.99
2022-10-23T16:56:21.820Z,15.99
2022-10-23T16:58:48.842Z,15.99
2022-10-23T17:01:23.281Z,15.99
2022-10-23T17:03:52.192Z,15.99
2022-10-23T17:06:24.050Z,15.99
2022-10-23T17:08:51.617Z,15.97
2022-10-23T17:11:27.086Z,15.96
2022-10-23T17:14:01.071Z,15.96
2022-10-23T17:16:39.999Z,15.95
2022-10-23T17:19:20.547Z,15.93
2022-10-23T17:21:56.215Z,15.94
2022-10-23T17:24:23.982Z,15.93
2022-10-23T17:26:53.018Z,15.91
2022-10-23T17:29:21.067Z,15.89
2022-10-23T17:31:51.220Z,15.89
2022-10-23T17:34:22.829Z,15.87
2022-10-23T17:36:54.783Z,15.87
2022-10-23T17:39:28.549Z,15.84
2022-10-23T17:41:56.133Z,15.80
2022-10-23T17:44:23.131Z,15.76
2022-10-23T17:46:53.601Z,15.74
2022-10-23T17:49:22.260Z,15.71
2022-10-23T17:51:58.582Z,15.68
2022-10-23T17:54:28.041Z,15.66
2022-10-23T17:56:56.115Z,15.64
2022-10-23T17:59:23.900Z,15.62
2022-10-23T18:01:51.399Z,15.58
2022-10-23T18:04:20.545Z,15.54
2022-10-23T18:06:52.878Z,15.50
2022-10-23T18:09:22.885Z,15.46
2022-10-23T18:11:50.407Z,15.44
2022-10-23T18:14:19.802Z,15.43
2022-10-23T18:16:48.248Z,15.44
2022-10-23T18:19:18.237Z,15.41
2022-10-23T18:21:46.485Z,15.39
2022-10-23T18:24:13.842Z,15.35
2022-10-23T18:26:42.490Z,15.30
2022-10-23T18:29:12.060Z,15.25
2022-10-23T18:31:40.066Z,15.23
2022-10-23T18:34:21.776Z,15.24
2022-10-23T18:36:50.831Z,15.22
2022-10-23T18:39:22.566Z,15.20
2022-10-23T18:41:56.986Z,15.15
2022-10-23T18:44:26.979Z,15.14
2022-10-23T18:46:57.051Z,15.11
2022-10-23T18:49:24.235Z,15.08
2022-10-23T18:51:51.410Z,15.07
2022-10-23T18:54:20.804Z,15.04
2022-10-23T18:56:48.360Z,15.02
2022-10-23T18:59:20.028Z,14.99
2022-10-23T19:01:47.928Z,14.96
2022-10-23T19:04:17.807Z,14.92
2022-10-23T19:06:47.761Z,14.93
2022-10-23T19:09:15.241Z,14.92
2022-10-23T19:11:43.346Z,14.92
2022-10-23T19:14:11.214Z,14.92
2022-10-23T19:16:54.422Z,14.93
2022-10-23T19:19:27.234Z,14.95
2022-10-23T19:21:55.909Z,14.93
2022-10-23T19:24:41.684Z,14.91
2022-10-23T19:27:09.478Z,14.89
2022-10-23T19:29:43.487Z,14.86
2022-10-23T19:32:11.810Z,14.81
2022-10-23T19:34:38.786Z,14.76
2022-10-23T19:37:06.620Z,14.70
2022-10-23T19:39:34.515Z,14.68
2022-10-23T19:42:06.204Z,14.72
2022-10-23T19:44:33.418Z,14.76
2022-10-23T19:47:04.204Z,14.80
2022-10-23T19:49:32.646Z,14.81
2022-10-23T19:51:59.911Z,14.80
2022-10-23T19:54:27.168Z,14.77
2022-10-23T19:56:56.302Z,14.75
2022-10-23T19:59:25.647Z,14.73
2022-10-23T20:01:53.146Z,14.66
2022-10-23T20:04:20.725Z,14.62
2022-10-23T20:06:48.200Z,14.61
2022-10-23T20:09:15.122Z,14.60
2022-10-23T20:11:43.651Z,14.60
2022-10-23T20:14:12.287Z,14.58
2022-10-23T20:16:44.877Z,14.56
2022-10-23T20:21:48.517Z,14.56
2022-10-23T20:24:18.713Z,14.55
2022-10-23T20:26:49.973Z,14.53
2022-10-23T20:29:16.880Z,14.52
2022-10-23T20:31:44.258Z,14.50
2022-10-23T20:34:11.834Z,14.50
2022-10-23T20:36:46.405Z,14.50
2022-10-23T20:39:21.702Z,14.50
2022-10-23T20:41:48.798Z,14.48
2022-10-23T20:44:18.095Z,14.47
2022-10-23T20:46:45.876Z,14.46
2022-10-23T20:49:14.299Z,14.44
2022-10-23T20:51:42.425Z,14.43
2022-10-23T20:54:09.651Z,14.45
2022-10-23T20:56:39.102Z,14.44
2022-10-23T20:59:17.746Z,14.41
2022-10-23T21:01:49.965Z,14.39
2022-10-23T21:04:25.192Z,14.35
2022-10-23T21:07:09.427Z,14.34
2022-10-23T21:09:38.076Z,14.35
2022-10-23T21:12:06.677Z,14.29
2022-10-23T21:14:34.788Z,14.29
2022-10-23T21:17:02.199Z,14.28
2022-10-23T21:19:30.140Z,14.28
2022-10-23T21:21:57.345Z,14.32
2022-10-23T21:24:24.668Z,14.34
2022-10-23T21:26:51.828Z,14.36
2022-10-23T21:29:20.013Z,14.38
2022-10-23T21:32:01.541Z,14.38
2022-10-23T21:34:29.191Z,14.40
2022-10-23T21:37:13.420Z,14.43
2022-10-23T21:39:45.859Z,14.43
2022-10-23T21:42:15.024Z,14.40
2022-10-23T21:44:42.038Z,14.43
2022-10-23T21:47:09.173Z,14.37
2022-10-23T21:49:36.068Z,14.38
2022-10-23T21:52:04.695Z,14.38
2022-10-23T21:54:31.609Z,14.40
2022-10-23T21:56:58.681Z,14.43
2022-10-23T21:59:30.145Z,14.45
2022-10-23T22:02:02.045Z,14.49
2022-10-23T22:04:33.025Z,14.50
2022-10-23T22:07:03.001Z,14.52
2022-10-23T22:09:31.512Z,14.53
2022-10-23T22:12:00.068Z,14.58
2022-10-23T22:14:28.288Z,14.57
2022-10-23T22:16:55.338Z,14.58
2022-10-23T22:19:23.182Z,14.58
2022-10-23T22:21:51.380Z,14.58
2022-10-23T22:24:18.816Z,14.59
2022-10-23T22:26:53.209Z,14.62
2022-10-23T22:29:25.627Z,14.65
2022-10-23T22:31:53.700Z,14.68
2022-10-23T22:37:16.122Z,14.72
2022-10-23T22:39:43.280Z,14.74
2022-10-23T22:42:10.382Z,14.71
2022-10-23T22:44:37.358Z,14.69
2022-10-23T22:47:04.735Z,14.65
2022-10-23T22:49:31.601Z,14.64
2022-10-23T22:51:58.634Z,14.55
2022-10-23T22:54:25.483Z,14.48
2022-10-23T22:56:52.862Z,14.47
2022-10-23T22:59:19.720Z,14.40
2022-10-23T23:01:48.736Z,14.33
2022-10-23T23:07:11.735Z,14.18
2022-10-23T23:09:42.193Z,14.15
2022-10-23T23:12:13.133Z,14.16
2022-10-23T23:14:41.153Z,14.09
2022-10-23T23:17:10.355Z,13.97
2022-10-23T23:19:37.978Z,13.95
2022-10-23T23:22:05.848Z,13.85
2022-10-23T23:24:33.093Z,13.85
2022-10-23T23:27:00.205Z,13.88
2022-10-23T23:29:28.435Z,13.89
2022-10-23T23:31:55.567Z,13.88
2022-10-23T23:34:22.373Z,13.85
2022-10-23T23:36:49.457Z,13.85
2022-10-23T23:39:16.716Z,13.82
2022-10-23T23:41:43.715Z,13.78
2022-10-23T23:44:10.546Z,13.79
2022-10-23T23:46:37.637Z,13.79
2022-10-23T23:49:04.479Z,13.83
2022-10-23T23:51:31.859Z,13.86
2022-10-23T23:53:58.670Z,13.88
2022-10-23T23:56:25.921Z,13.92
2022-10-23T23:58:52.769Z,13.92
